createdAt,value
2023-04-16T00:00:15.301Z,10.80
2023-04-16T00:02:01.146Z,12.50
2023-04-16T00:03:34.330Z,11.30
2023-04-16T00:04:49.418Z,12.20
2023-04-16T00:06:11.913Z,12.70
2023-04-16T00:07:45.866Z,11.40
2023-04-16T00:24:27.439Z,9.20
2023-04-16T00:25:51.060Z,9.00
2023-04-16T00:27:24.971Z,9.30
2023-04-16T00:28:58.948Z,9.00
2023-04-16T00:30:25.362Z,7.70
2023-04-16T00:31:59.320Z,7.90
2023-04-16T00:33:34.819Z,8.10
2023-04-16T00:35:08.967Z,8.20
2023-04-16T00:36:43.340Z,9.60
2023-04-16T00:47:13.395Z,7.50
2023-04-16T00:48:45.969Z,8.20
2023-04-16T00:50:18.503Z,6.60
2023-04-16T00:51:23.906Z,7.00
2023-04-16T00:52:56.560Z,7.40
2023-04-16T00:57:27.560Z,7.10
2023-04-16T00:58:58.688Z,7.40
2023-04-16T01:00:31.221Z,6.40
2023-04-16T01:01:56.401Z,6.80
2023-04-16T01:03:11.228Z,8.60
2023-04-16T01:04:42.799Z,9.10
2023-04-16T01:05:58.407Z,8.60
2023-04-16T01:07:31.047Z,8.20
2023-04-16T01:08:45.128Z,6.60
2023-04-16T01:10:17.798Z,6.60
2023-04-16T01:11:50.483Z,6.50
2023-04-16T01:13:23.007Z,6.40
2023-04-16T01:14:55.534Z,5.60
2023-04-16T01:19:39.653Z,5.70
2023-04-16T01:21:12.452Z,6.00
2023-04-16T01:22:45.101Z,5.10
2023-04-16T01:24:17.931Z,5.50
2023-04-16T01:25:43.780Z,4.20
2023-04-16T01:40:12.274Z,10.60
2023-04-16T01:40:59.790Z,11.00
2023-04-16T01:42:24.957Z,11.60
2023-04-16T01:43:47.696Z,13.10
2023-04-16T01:45:10.292Z,12.20
2023-04-16T01:47:28.470Z,9.00
2023-04-16T01:48:52.620Z,8.80
2023-04-16T01:49:52.026Z,8.20
2023-04-16T01:51:24.494Z,9.30
2023-04-16T01:52:46.126Z,9.20
2023-04-16T01:54:00.465Z,6.80
2023-04-16T01:55:26.620Z,7.10
2023-04-16T01:56:59.242Z,8.30
2023-04-16T01:58:33.217Z,7.00
2023-04-16T01:59:54.713Z,5.50
2023-04-16T02:01:27.914Z,4.00
2023-04-16T02:07:19.588Z,3.90
2023-04-16T02:08:54.101Z,3.50
2023-04-16T02:10:26.550Z,6.30
2023-04-16T02:11:48.195Z,5.30
2023-04-16T02:13:11.023Z,5.10
2023-04-16T02:14:32.125Z,4.90
2023-04-16T02:15:59.136Z,5.40
2023-04-16T02:17:33.063Z,4.60
2023-04-16T02:18:59.572Z,4.80
2023-04-16T02:20:10.055Z,5.30
2023-04-16T02:24:21.551Z,5.70
2023-04-16T02:27:31.856Z,5.10
2023-04-16T02:29:04.299Z,6.40
2023-04-16T02:30:05.105Z,6.40
2023-04-16T02:31:30.705Z,5.50
2023-04-16T02:33:04.386Z,6.30
2023-04-16T02:34:27.330Z,5.80
2023-04-16T02:35:39.511Z,5.10
2023-04-16T02:36:59.647Z,5.60
2023-04-16T02:38:33.212Z,5.30
2023-04-16T02:41:31.877Z,6.10
2023-04-16T02:43:03.800Z,5.00
2023-04-16T02:44:34.892Z,4.50
2023-04-16T02:45:44.345Z,5.30
2023-04-16T02:47:16.827Z,5.50
2023-04-16T02:48:49.586Z,4.90
2023-04-16T02:50:04.968Z,5.30
2023-04-16T02:51:37.512Z,5.00
2023-04-16T02:53:10.006Z,5.20
2023-04-16T02:54:42.503Z,5.20
2023-04-16T02:55:54.829Z,5.20
2023-04-16T02:57:07.303Z,5.00
2023-04-16T02:58:39.914Z,5.30
2023-04-16T02:59:55.876Z,4.90
2023-04-16T03:01:28.821Z,4.40
2023-04-16T03:02:41.538Z,5.10
2023-04-16T03:04:15.560Z,5.00
2023-04-16T03:13:30.192Z,5.50
2023-04-16T03:15:02.709Z,5.10
2023-04-16T03:16:35.396Z,4.50
2023-04-16T03:18:07.925Z,5.80
2023-04-16T03:19:40.453Z,5.30
2023-04-16T03:21:13.004Z,4.80
2023-04-16T03:22:45.586Z,4.90
2023-04-16T03:24:18.347Z,3.10
2023-04-16T03:25:39.803Z,3.80
2023-04-16T03:36:14.440Z,4.00
2023-04-16T03:37:27.030Z,4.50
2023-04-16T03:38:59.658Z,3.80
2023-04-16T03:40:13.628Z,3.70
2023-04-16T03:41:34.868Z,3.80
2023-04-16T03:42:47.258Z,3.90
2023-04-16T03:44:13.546Z,3.80
2023-04-16T03:45:46.226Z,3.80
2023-04-16T03:47:19.048Z,3.80
2023-04-16T04:08:09.827Z,3.70
2023-04-16T04:10:54.378Z,3.90
2023-04-16T04:12:27.186Z,4.00
2023-04-16T04:14:00.641Z,3.50
2023-04-16T04:30:57.163Z,4.20
2023-04-16T04:32:29.728Z,4.30
2023-04-16T04:34:02.286Z,4.40
2023-04-16T04:35:34.736Z,5.30
2023-04-16T04:36:53.639Z,4.70
2023-04-16T04:38:19.573Z,4.50
2023-04-16T04:39:54.032Z,4.80
2023-04-16T04:41:13.265Z,5.00
2023-04-16T04:42:35.177Z,5.00
2023-04-16T04:44:07.910Z,5.00
2023-04-16T04:45:31.690Z,5.10
2023-04-16T04:47:05.684Z,5.10
2023-04-16T04:48:38.513Z,4.70
2023-04-16T04:53:18.944Z,4.40
2023-04-16T04:55:06.472Z,3.90
2023-04-16T04:56:39.172Z,4.60
2023-04-16T04:58:12.916Z,4.10
2023-04-16T04:59:45.832Z,4.30
2023-04-16T05:02:10.856Z,4.10
2023-04-16T05:03:44.090Z,4.30
2023-04-16T05:05:09.245Z,4.70
2023-04-16T05:06:43.298Z,4.60
2023-04-16T05:08:21.543Z,8.60
2023-04-16T05:09:59.835Z,28.00
2023-04-16T05:11:32.432Z,32.60
2023-04-16T05:13:05.147Z,12.10
2023-04-16T05:14:39.073Z,7.80
2023-04-16T05:16:05.258Z,5.70
2023-04-16T05:17:19.227Z,6.30
2023-04-16T05:25:57.645Z,5.70
2023-04-16T05:27:19.976Z,5.40
2023-04-16T05:45:02.081Z,4.90
2023-04-16T05:46:36.075Z,4.00
2023-04-16T05:47:48.862Z,4.30
2023-04-16T05:49:21.783Z,4.30
2023-04-16T05:50:54.494Z,4.30
2023-04-16T05:52:10.125Z,4.50
2023-04-16T05:53:43.849Z,4.30
2023-04-16T05:55:16.641Z,4.70
2023-04-16T05:56:49.085Z,5.60
2023-04-16T05:58:11.761Z,5.60
2023-04-16T06:02:37.821Z,7.90
2023-04-16T06:03:59.863Z,9.40
2023-04-16T06:05:33.650Z,9.10
2023-04-16T06:07:11.947Z,7.60
2023-04-16T06:08:44.631Z,8.30
2023-04-16T06:10:06.010Z,7.90
2023-04-16T06:11:21.359Z,7.60
2023-04-16T06:12:53.874Z,7.70
2023-04-16T06:14:27.293Z,8.70
2023-04-16T06:21:46.177Z,8.00
2023-04-16T06:23:23.618Z,8.10
2023-04-16T06:24:57.010Z,7.80
2023-04-16T06:26:32.258Z,7.40
2023-04-16T06:39:31.585Z,7.50
2023-04-16T06:41:05.614Z,7.00
2023-04-16T06:42:39.453Z,7.20
2023-04-16T06:44:13.497Z,6.80
2023-04-16T06:45:27.440Z,5.20
2023-04-16T06:46:50.368Z,6.60
2023-04-16T06:47:56.798Z,6.40
2023-04-16T06:49:30.409Z,6.80
2023-04-16T06:51:04.467Z,7.10
2023-04-16T06:52:31.110Z,6.70
2023-04-16T06:54:05.305Z,7.20
2023-04-16T06:55:39.734Z,7.60
2023-04-16T07:01:28.737Z,6.30
2023-04-16T07:10:45.835Z,6.50
2023-04-16T07:12:19.625Z,6.10
2023-04-16T07:13:53.470Z,5.80
2023-04-16T07:15:26.181Z,6.70
2023-04-16T07:16:58.730Z,5.90
2023-04-16T07:18:31.520Z,6.60
2023-04-16T07:20:04.114Z,6.10
2023-04-16T07:21:12.257Z,5.60
2023-04-16T07:22:33.884Z,5.80
2023-04-16T07:24:07.768Z,7.60
2023-04-16T07:38:20.926Z,6.30
2023-04-16T07:39:55.118Z,6.70
2023-04-16T07:41:28.674Z,5.90
2023-04-16T07:43:01.437Z,6.00
2023-04-16T07:44:35.145Z,6.00
2023-04-16T07:46:08.034Z,5.80
2023-04-16T07:57:02.060Z,5.60
2023-04-16T07:58:09.942Z,5.50
2023-04-16T07:59:31.237Z,5.90
2023-04-16T08:00:54.133Z,6.00
2023-04-16T08:02:26.849Z,5.20
2023-04-16T08:03:39.477Z,4.50
2023-04-16T08:05:13.287Z,5.20
2023-04-16T08:06:18.883Z,5.30
2023-04-16T08:07:50.274Z,4.60
2023-04-16T08:09:22.826Z,4.70
2023-04-16T08:11:47.775Z,5.00
2023-04-16T08:13:13.418Z,5.30
2023-04-16T08:14:45.951Z,5.80
2023-04-16T08:16:09.030Z,4.90
2023-04-16T08:17:30.611Z,4.20
2023-04-16T08:19:04.305Z,5.00
2023-04-16T08:20:38.268Z,4.40
2023-04-16T08:24:06.375Z,5.30
2023-04-16T08:25:19.484Z,5.00
2023-04-16T08:26:51.914Z,4.10
2023-04-16T08:28:13.580Z,4.70
2023-04-16T08:40:48.665Z,3.80
2023-04-16T08:42:21.253Z,4.50
2023-04-16T08:43:39.072Z,4.60
2023-04-16T08:45:11.597Z,4.40
2023-04-16T08:46:44.506Z,4.50
2023-04-16T08:49:29.775Z,4.10
2023-04-16T08:51:05.677Z,4.10
2023-04-16T08:52:40.220Z,4.10
2023-04-16T08:54:14.493Z,4.30
2023-04-16T08:55:48.882Z,5.00
2023-04-16T08:57:23.305Z,4.70
2023-04-16T08:58:57.557Z,4.50
2023-04-16T09:06:51.038Z,4.50
2023-04-16T09:08:26.166Z,5.40
2023-04-16T09:09:59.014Z,5.90
2023-04-16T09:12:43.972Z,5.60
2023-04-16T09:14:17.797Z,5.40
2023-04-16T09:15:51.988Z,5.70
2023-04-16T09:16:57.412Z,6.70
2023-04-16T09:18:30.051Z,5.90
2023-04-16T09:20:03.960Z,5.80
2023-04-16T09:22:29.764Z,6.40
2023-04-16T09:24:03.807Z,6.40
2023-04-16T09:26:43.227Z,5.80
2023-04-16T09:28:18.375Z,7.00
2023-04-16T09:29:52.051Z,7.40
2023-04-16T09:31:08.384Z,7.20
2023-04-16T09:32:44.497Z,7.10
2023-04-16T10:03:01.999Z,7.20
2023-04-16T10:04:34.893Z,7.00
2023-04-16T10:06:07.616Z,7.00
2023-04-16T10:07:43.456Z,7.10
2023-04-16T10:12:48.998Z,6.80
2023-04-16T10:14:21.472Z,6.80
2023-04-16T10:15:54.248Z,7.10
2023-04-16T10:18:39.808Z,7.00
2023-04-16T10:22:38.324Z,6.70
2023-04-16T10:24:12.337Z,6.60
2023-04-16T10:25:46.239Z,7.50
2023-04-16T10:26:58.704Z,7.70
2023-04-16T10:28:31.054Z,7.10
2023-04-16T10:30:03.814Z,7.40
2023-04-16T10:31:36.457Z,7.20
2023-04-16T10:33:09.684Z,8.10
2023-04-16T10:34:47.879Z,7.60
2023-04-16T10:36:13.354Z,6.50
2023-04-16T10:47:25.077Z,7.40
2023-04-16T10:49:11.271Z,7.00
2023-04-16T10:50:44.120Z,7.50
2023-04-16T10:52:25.512Z,7.10
2023-04-16T10:54:07.194Z,7.30
2023-04-16T10:55:39.897Z,7.10
2023-04-16T10:57:13.547Z,6.60
2023-04-16T10:58:46.299Z,6.90
2023-04-16T11:00:10.069Z,6.20
2023-04-16T11:05:03.686Z,6.20
2023-04-16T11:17:18.143Z,5.70
2023-04-16T11:18:54.554Z,5.80
2023-04-16T11:20:30.205Z,6.60
2023-04-16T11:21:53.367Z,6.90
2023-04-16T11:23:27.450Z,5.90
2023-04-16T11:25:02.408Z,6.20
2023-04-16T11:26:26.396Z,5.80
2023-04-16T11:52:00.913Z,5.60
2023-04-16T11:53:33.422Z,6.30
2023-04-16T11:55:06.100Z,5.90
2023-04-16T11:56:44.907Z,5.70
2023-04-16T11:58:17.608Z,5.80
2023-04-16T12:00:01.615Z,5.00
2023-04-16T12:01:24.282Z,5.40
2023-04-16T12:02:57.140Z,5.90
2023-04-16T12:04:38.950Z,5.90
2023-04-16T12:06:26.252Z,6.10
2023-04-16T12:08:04.837Z,6.20
2023-04-16T12:17:56.300Z,5.30
2023-04-16T12:19:41.093Z,4.90
2023-04-16T12:21:02.470Z,5.00
2023-04-16T12:22:34.673Z,5.70
2023-04-16T12:25:42.129Z,5.80
2023-04-16T12:35:22.068Z,4.80
2023-04-16T12:37:00.768Z,4.30
2023-04-16T12:38:24.245Z,3.80
2023-04-16T12:39:57.254Z,4.20
2023-04-16T12:41:30.005Z,3.70
2023-04-16T12:44:08.647Z,4.20
2023-04-16T12:49:13.059Z,7.70
2023-04-16T12:50:16.821Z,5.70
2023-04-16T12:51:49.363Z,3.90
2023-04-16T12:53:01.618Z,5.70
2023-04-16T12:54:05.317Z,4.00
2023-04-16T12:55:17.492Z,4.00
2023-04-16T12:56:50.051Z,3.80
2023-04-16T12:58:22.650Z,5.50
2023-04-16T12:59:55.198Z,9.00
2023-04-16T13:01:27.887Z,7.70
2023-04-16T13:10:41.774Z,5.00
2023-04-16T13:12:14.227Z,4.50
2023-04-16T13:13:46.928Z,4.30
2023-04-16T13:15:00.674Z,3.80
2023-04-16T13:16:27.091Z,4.60
2023-04-16T13:17:59.852Z,4.10
2023-04-16T13:20:45.113Z,4.40
2023-04-16T13:22:17.558Z,3.70
2023-04-16T13:23:50.439Z,3.60
2023-04-16T13:26:19.430Z,5.60
2023-04-16T13:41:57.822Z,4.60
2023-04-16T13:43:22.837Z,4.30
2023-04-16T13:44:45.733Z,4.30
2023-04-16T13:46:18.228Z,4.60
2023-04-16T14:57:15.296Z,5.60
2023-04-16T14:58:39.272Z,5.60
2023-04-16T14:59:51.804Z,7.50
2023-04-16T15:01:04.154Z,8.50
2023-04-16T15:02:37.287Z,7.60
2023-04-16T15:04:10.418Z,5.50
2023-04-16T15:05:35.814Z,5.10
2023-04-16T15:06:56.871Z,5.30
2023-04-16T15:08:12.255Z,5.00
2023-04-16T15:09:44.917Z,7.20
2023-04-16T15:18:40.738Z,8.60
2023-04-16T15:20:14.368Z,10.20
2023-04-16T15:21:48.848Z,6.90
2023-04-16T15:23:22.857Z,8.30
2023-04-16T15:48:13.360Z,3.20
2023-04-16T15:49:46.043Z,4.20
2023-04-16T15:51:19.114Z,3.70
2023-04-16T15:52:52.620Z,3.70
2023-04-16T15:54:26.607Z,4.50
2023-04-16T16:20:09.360Z,4.50
2023-04-16T16:21:42.118Z,4.20
2023-04-16T16:23:14.924Z,4.20
2023-04-16T16:26:01.633Z,4.40
2023-04-16T16:36:04.380Z,3.50
2023-04-16T16:37:31.297Z,3.50
2023-04-16T16:38:58.097Z,4.40
2023-04-16T16:40:25.063Z,4.10
2023-04-16T16:41:40.379Z,4.10
2023-04-16T16:43:15.035Z,3.20
2023-04-16T16:44:50.344Z,4.40
2023-04-16T16:46:31.051Z,4.10
2023-04-16T16:48:05.352Z,4.00
2023-04-16T16:49:32.043Z,4.10
2023-04-16T16:51:07.127Z,4.20
2023-04-16T17:13:30.398Z,10.30
2023-04-16T17:14:54.159Z,10.90
2023-04-16T17:29:00.502Z,12.50
2023-04-16T17:30:33.119Z,13.00
2023-04-16T17:32:06.692Z,11.80
2023-04-16T17:33:39.378Z,10.70
2023-04-16T17:35:13.279Z,11.20
2023-04-16T17:36:48.355Z,12.20
2023-04-16T17:38:22.217Z,11.40
2023-04-16T17:46:32.230Z,13.00
2023-04-16T17:48:05.275Z,13.80
2023-04-16T17:50:49.924Z,12.40
2023-04-16T17:52:11.484Z,11.80
2023-04-16T17:53:44.014Z,11.60
2023-04-16T17:55:02.981Z,10.80
2023-04-16T18:00:07.135Z,10.40
2023-04-16T18:01:31.512Z,10.70
2023-04-16T18:03:04.376Z,11.70
2023-04-16T18:05:49.926Z,10.20
2023-04-16T18:07:22.554Z,11.10
2023-04-16T18:08:30.653Z,12.30
2023-04-16T18:09:43.189Z,11.20
2023-04-16T18:10:56.952Z,11.40
2023-04-16T18:12:09.184Z,10.80
2023-04-16T18:13:42.143Z,11.50
2023-04-16T18:16:07.425Z,11.70
2023-04-16T18:17:34.581Z,12.70
2023-04-16T18:19:07.437Z,13.50
2023-04-16T18:21:33.168Z,13.30
2023-04-16T18:23:55.436Z,18.20
2023-04-16T18:25:29.934Z,15.50
2023-04-16T18:26:49.525Z,11.80
2023-04-16T18:28:22.190Z,16.60
2023-04-16T18:29:55.375Z,17.00
2023-04-16T18:31:03.445Z,21.50
2023-04-16T18:32:35.077Z,22.10
2023-04-16T18:33:57.531Z,23.60
2023-04-16T18:35:13.976Z,21.80
2023-04-16T18:36:46.570Z,14.40
2023-04-16T18:38:19.484Z,20.30
2023-04-16T18:41:04.568Z,12.10
2023-04-16T18:42:26.403Z,10.30
2023-04-16T18:43:40.672Z,10.10
2023-04-16T18:45:15.786Z,9.30
2023-04-16T18:46:46.217Z,9.30
2023-04-16T18:48:18.828Z,9.20
2023-04-16T18:49:41.366Z,11.50
2023-04-16T18:52:01.575Z,11.00
2023-04-16T18:53:34.122Z,10.60
2023-04-16T18:54:55.266Z,10.30
2023-04-16T18:56:28.056Z,9.90
2023-04-16T18:57:49.187Z,10.30
2023-04-16T18:59:10.911Z,10.90
2023-04-16T19:01:53.915Z,9.80
2023-04-16T19:03:07.273Z,10.50
2023-04-16T19:04:40.225Z,9.80
2023-04-16T19:06:13.241Z,10.00
2023-04-16T19:07:45.833Z,11.00
2023-04-16T19:15:54.579Z,10.50
2023-04-16T19:17:28.158Z,10.40
2023-04-16T19:18:33.921Z,11.80
2023-04-16T19:19:35.495Z,11.40
2023-04-16T19:22:20.262Z,10.50
2023-04-16T19:23:45.632Z,10.60
2023-04-16T19:33:35.610Z,9.90
2023-04-16T19:35:11.399Z,9.80
2023-04-16T19:36:43.972Z,10.30
2023-04-16T19:38:16.551Z,10.00
2023-04-16T19:39:49.922Z,9.70
2023-04-16T19:41:24.436Z,10.00
2023-04-16T19:42:56.844Z,11.30
2023-04-16T19:49:49.574Z,10.70
2023-04-16T19:51:22.555Z,11.00
2023-04-16T19:52:44.019Z,10.20
2023-04-16T19:54:06.610Z,10.90
2023-04-16T20:07:59.233Z,11.20
2023-04-16T20:09:31.785Z,10.10
2023-04-16T20:11:05.425Z,10.40
2023-04-16T20:12:38.286Z,9.70
2023-04-16T20:25:55.390Z,15.90
2023-04-16T20:27:12.466Z,15.20
2023-04-16T20:28:46.457Z,16.10
2023-04-16T20:30:20.383Z,14.60
2023-04-16T20:31:55.535Z,15.00
2023-04-16T20:33:18.606Z,12.90
2023-04-16T20:49:08.319Z,14.90
2023-04-16T20:50:23.522Z,15.00
2023-04-16T20:52:02.297Z,15.10
2023-04-16T20:53:34.863Z,14.60
2023-04-16T20:54:54.821Z,13.60
2023-04-16T20:56:27.206Z,13.40
2023-04-16T20:57:45.747Z,11.70
2023-04-16T20:59:03.329Z,12.50
2023-04-16T21:00:19.997Z,12.80
2023-04-16T21:01:52.754Z,11.80
2023-04-16T21:03:25.617Z,11.50
2023-04-16T21:05:53.823Z,11.20
2023-04-16T21:07:26.341Z,11.70
2023-04-16T21:08:57.820Z,10.50
2023-04-16T21:10:19.516Z,11.20
2023-04-16T21:12:58.068Z,10.00
2023-04-16T21:14:29.145Z,10.60
2023-04-16T21:15:35.443Z,10.10
2023-04-16T21:16:43.894Z,10.80
2023-04-16T21:18:05.513Z,10.30
2023-04-16T21:19:27.383Z,11.10
2023-04-16T21:21:00.142Z,11.40
2023-04-16T21:22:05.278Z,11.00
2023-04-16T21:23:30.642Z,11.40
2023-04-16T21:24:56.557Z,10.70
2023-04-16T21:26:29.257Z,11.80
2023-04-16T21:27:21.464Z,10.80
2023-04-16T21:28:34.563Z,10.80
2023-04-16T21:29:20.248Z,11.80
2023-04-16T21:30:45.769Z,11.40
2023-04-16T21:32:18.238Z,11.30
2023-04-16T21:33:50.797Z,11.00
2023-04-16T21:35:11.891Z,9.90
2023-04-16T21:36:44.522Z,11.10
2023-04-16T21:38:17.173Z,10.80
2023-04-16T21:39:49.740Z,11.00
2023-04-16T21:41:21.121Z,11.30
2023-04-16T21:42:53.677Z,10.90
2023-04-16T21:44:26.490Z,9.70
2023-04-16T21:45:58.969Z,9.60
2023-04-16T21:47:31.986Z,8.10
2023-04-16T21:48:47.868Z,7.70
2023-04-16T21:50:09.167Z,8.50
2023-04-16T21:51:42.117Z,8.00
2023-04-16T21:54:20.508Z,8.00
2023-04-16T21:55:42.928Z,7.00
2023-04-16T21:57:15.134Z,7.70
2023-04-16T21:58:36.962Z,7.40
2023-04-16T21:59:51.434Z,6.80
2023-04-16T22:03:58.390Z,7.60
2023-04-16T22:05:17.075Z,7.40
2023-04-16T22:06:39.995Z,7.00
2023-04-16T22:08:23.984Z,7.70
2023-04-16T22:09:47.257Z,7.20
2023-04-16T22:12:12.533Z,7.00
2023-04-16T22:13:45.108Z,7.80
2023-04-16T22:15:10.485Z,6.70
2023-04-16T22:16:37.755Z,6.10
2023-04-16T22:18:10.304Z,10.10
2023-04-16T22:19:42.850Z,6.20
2023-04-16T22:21:15.951Z,6.50
2023-04-16T22:24:09.108Z,6.40
2023-04-16T22:25:23.108Z,6.10
2023-04-16T22:26:56.677Z,5.80
2023-04-16T22:28:30.586Z,6.70
2023-04-16T22:30:03.373Z,6.30
2023-04-16T22:42:44.883Z,5.70
2023-04-16T22:44:11.883Z,5.20
2023-04-16T22:45:37.639Z,5.60
2023-04-16T22:47:01.619Z,6.10
2023-04-16T22:51:29.311Z,5.80
2023-04-16T22:52:51.947Z,5.10
2023-04-16T22:54:24.485Z,5.50
2023-04-16T22:55:56.958Z,4.90
2023-04-16T22:57:18.156Z,5.40
2023-04-16T22:58:50.574Z,5.20
2023-04-16T23:00:23.214Z,5.30
2023-04-16T23:11:02.382Z,5.10
2023-04-16T23:12:25.163Z,5.40
2023-04-16T23:13:39.057Z,5.60
2023-04-16T23:15:13.008Z,5.30
2023-04-16T23:16:48.028Z,5.60
2023-04-16T23:18:23.104Z,5.20
2023-04-16T23:19:57.035Z,5.30
2023-04-16T23:21:31.060Z,5.70
2023-04-16T23:23:06.315Z,6.10
2023-04-16T23:24:41.406Z,5.30
2023-04-16T23:26:16.870Z,5.80
2023-04-16T23:27:52.264Z,6.30
2023-04-16T23:29:27.689Z,5.80
2023-04-16T23:31:01.847Z,5.50
2023-04-16T23:32:35.882Z,5.80
2023-04-16T23:34:11.365Z,6.20
2023-04-16T23:35:47.115Z,6.30
2023-04-16T23:37:22.474Z,7.10
2023-04-16T23:38:58.093Z,6.30
2023-04-16T23:40:33.318Z,6.40
2023-04-16T23:57:39.368Z,8.20
2023-04-16T23:59:13.788Z,8.10
